sensor_id;sensor_type;location;lat;lon;timestamp;temperature;humidity
1536;DHT22;761;50.074;8.228;2022-07-29T00:01:43;19.70;1.00
1536;DHT22;761;50.074;8.228;2022-07-29T00:04:11;19.60;1.00
1536;DHT22;761;50.074;8.228;2022-07-29T00:06:41;19.60;1.00
1536;DHT22;761;50.074;8.228;2022-07-29T00:09:09;19.40;1.00
1536;DHT22;761;50.074;8.228;2022-07-29T00:11:38;19.00;1.00
1536;DHT22;761;50.074;8.228;2022-07-29T00:14:08;18.80;1.00
1536;DHT22;761;50.074;8.228;2022-07-29T00:16:36;18.60;1.00
1536;DHT22;761;50.074;8.228;2022-07-29T00:19:07;18.20;1.00
1536;DHT22;761;50.074;8.228;2022-07-29T00:21:36;18.20;1.00
1536;DHT22;761;50.074;8.228;2022-07-29T00:24:05;18.40;1.00
1536;DHT22;761;50.074;8.228;2022-07-29T00:26:34;18.60;1.00
1536;DHT22;761;50.074;8.228;2022-07-29T00:29:03;18.80;1.00
1536;DHT22;761;50.074;8.228;2022-07-29T00:31:53;18.90;1.00
1536;DHT22;761;50.074;8.228;2022-07-29T00:34:21;19.10;1.00
1536;DHT22;761;50.074;8.228;2022-07-29T00:37:07;19.10;1.00
1536;DHT22;761;50.074;8.228;2022-07-29T00:39:35;19.30;1.00
1536;DHT22;761;50.074;8.228;2022-07-29T00:42:04;19.30;1.00
1536;DHT22;761;50.074;8.228;2022-07-29T00:44:36;19.30;1.00
1536;DHT22;761;50.074;8.228;2022-07-29T00:47:11;19.30;1.00
1536;DHT22;761;50.074;8.228;2022-07-29T00:49:40;19.40;1.00
1536;DHT22;761;50.074;8.228;2022-07-29T00:52:10;19.40;1.00
1536;DHT22;761;50.074;8.228;2022-07-29T00:54:42;18.90;1.00
1536;DHT22;761;50.074;8.228;2022-07-29T00:57:11;18.70;1.00
1536;DHT22;761;50.074;8.228;2022-07-29T00:59:40;18.20;1.00
1536;DHT22;761;50.074;8.228;2022-07-29T01:02:09;18.20;1.00
1536;DHT22;761;50.074;8.228;2022-07-29T01:04:38;18.40;1.00
1536;DHT22;761;50.074;8.228;2022-07-29T01:07:09;18.40;1.00
1536;DHT22;761;50.074;8.228;2022-07-29T01:09:38;18.50;1.00
1536;DHT22;761;50.074;8.228;2022-07-29T01:12:15;18.40;1.00
1536;DHT22;761;50.074;8.228;2022-07-29T01:14:48;18.50;1.00
1536;DHT22;761;50.074;8.228;2022-07-29T01:17:23;18.40;1.00
1536;DHT22;761;50.074;8.228;2022-07-29T01:19:58;18.30;1.00
1536;DHT22;761;50.074;8.228;2022-07-29T01:22:42;18.30;1.00
1536;DHT22;761;50.074;8.228;2022-07-29T01:29:05;18.40;1.00
1536;DHT22;761;50.074;8.228;2022-07-29T01:31:48;18.50;1.00
1536;DHT22;761;50.074;8.228;2022-07-29T01:34:31;18.40;1.00
1536;DHT22;761;50.074;8.228;2022-07-29T01:37:14;18.10;1.00
1536;DHT22;761;50.074;8.228;2022-07-29T01:39:45;18.20;1.00
1536;DHT22;761;50.074;8.228;2022-07-29T01:42:20;18.20;1.00
1536;DHT22;761;50.074;8.228;2022-07-29T01:44:57;18.10;1.00
1536;DHT22;761;50.074;8.228;2022-07-29T01:47:33;18.10;1.00
1536;DHT22;761;50.074;8.228;2022-07-29T01:50:08;17.80;1.00
1536;DHT22;761;50.074;8.228;2022-07-29T01:52:42;18.00;1.00
1536;DHT22;761;50.074;8.228;2022-07-29T01:55:15;18.20;1.00
1536;DHT22;761;50.074;8.228;2022-07-29T01:57:49;18.30;1.00
1536;DHT22;761;50.074;8.228;2022-07-29T02:00:19;18.30;1.00
1536;DHT22;761;50.074;8.228;2022-07-29T02:02:48;18.20;1.00
1536;DHT22;761;50.074;8.228;2022-07-29T02:05:23;18.00;1.00
1536;DHT22;761;50.074;8.228;2022-07-29T02:08:21;17.80;1.00
1536;DHT22;761;50.074;8.228;2022-07-29T02:10:52;17.80;1.00
1536;DHT22;761;50.074;8.228;2022-07-29T02:13:24;17.80;1.00
1536;DHT22;761;50.074;8.228;2022-07-29T02:15:55;17.70;1.00
1536;DHT22;761;50.074;8.228;2022-07-29T02:18:27;17.60;1.00
1536;DHT22;761;50.074;8.228;2022-07-29T02:20:59;17.70;1.00
1536;DHT22;761;50.074;8.228;2022-07-29T02:23:28;17.80;1.00
1536;DHT22;761;50.074;8.228;2022-07-29T02:26:20;18.00;1.00
1536;DHT22;761;50.074;8.228;2022-07-29T02:28:52;18.10;1.00
1536;DHT22;761;50.074;8.228;2022-07-29T02:31:51;18.00;1.00
1536;DHT22;761;50.074;8.228;2022-07-29T02:34:20;18.20;1.00
1536;DHT22;761;50.074;8.228;2022-07-29T02:36:49;18.10;1.00
1536;DHT22;761;50.074;8.228;2022-07-29T02:39:18;18.00;1.00
1536;DHT22;761;50.074;8.228;2022-07-29T02:41:52;18.10;1.00
1536;DHT22;761;50.074;8.228;2022-07-29T02:44:25;18.20;1.00
1536;DHT22;761;50.074;8.228;2022-07-29T02:47:09;18.30;1.00
1536;DHT22;761;50.074;8.228;2022-07-29T02:49:48;18.50;1.00
1536;DHT22;761;50.074;8.228;2022-07-29T02:52:24;18.50;1.00
1536;DHT22;761;50.074;8.228;2022-07-29T02:54:56;18.60;1.00
1536;DHT22;761;50.074;8.228;2022-07-29T02:57:32;18.60;1.00
1536;DHT22;761;50.074;8.228;2022-07-29T03:00:05;18.50;1.00
1536;DHT22;761;50.074;8.228;2022-07-29T03:02:42;18.50;1.00
1536;DHT22;761;50.074;8.228;2022-07-29T03:05:17;18.60;1.00
1536;DHT22;761;50.074;8.228;2022-07-29T03:07:49;18.50;1.00
1536;DHT22;761;50.074;8.228;2022-07-29T03:10:18;18.20;1.00
1536;DHT22;761;50.074;8.228;2022-07-29T03:12:54;18.00;1.00
1536;DHT22;761;50.074;8.228;2022-07-29T03:15:25;17.50;1.00
1536;DHT22;761;50.074;8.228;2022-07-29T03:17:55;17.10;1.00
1536;DHT22;761;50.074;8.228;2022-07-29T03:20:24;16.80;1.00
1536;DHT22;761;50.074;8.228;2022-07-29T03:22:53;16.80;1.00
1536;DHT22;761;50.074;8.228;2022-07-29T03:25:21;16.90;1.00
1536;DHT22;761;50.074;8.228;2022-07-29T03:27:51;16.90;1.00
1536;DHT22;761;50.074;8.228;2022-07-29T03:30:24;16.90;1.00
1536;DHT22;761;50.074;8.228;2022-07-29T03:32:56;16.80;1.00
1536;DHT22;761;50.074;8.228;2022-07-29T03:35:33;16.80;1.00
1536;DHT22;761;50.074;8.228;2022-07-29T03:38:02;16.80;1.00
1536;DHT22;761;50.074;8.228;2022-07-29T03:40:33;16.80;1.00
1536;DHT22;761;50.074;8.228;2022-07-29T03:43:30;16.70;1.00
1536;DHT22;761;50.074;8.228;2022-07-29T03:46:05;16.80;1.00
1536;DHT22;761;50.074;8.228;2022-07-29T03:48:41;16.80;1.00
1536;DHT22;761;50.074;8.228;2022-07-29T03:51:13;16.80;1.00
1536;DHT22;761;50.074;8.228;2022-07-29T03:53:42;16.80;1.00
1536;DHT22;761;50.074;8.228;2022-07-29T03:56:12;16.80;1.00
1536;DHT22;761;50.074;8.228;2022-07-29T03:58:49;16.60;1.00
1536;DHT22;761;50.074;8.228;2022-07-29T04:01:18;16.60;1.00
1536;DHT22;761;50.074;8.228;2022-07-29T04:03:52;16.60;1.00
1536;DHT22;761;50.074;8.228;2022-07-29T04:06:22;16.50;1.00
1536;DHT22;761;50.074;8.228;2022-07-29T04:08:52;16.60;1.00
1536;DHT22;761;50.074;8.228;2022-07-29T04:11:21;16.60;1.00
1536;DHT22;761;50.074;8.228;2022-07-29T04:13:49;16.50;1.00
1536;DHT22;761;50.074;8.228;2022-07-29T04:16:17;16.30;1.00
1536;DHT22;761;50.074;8.228;2022-07-29T04:18:46;16.40;1.00
1536;DHT22;761;50.074;8.228;2022-07-29T04:21:18;16.40;1.00
1536;DHT22;761;50.074;8.228;2022-07-29T04:23:46;16.50;1.00
1536;DHT22;761;50.074;8.228;2022-07-29T04:26:22;16.40;1.00
1536;DHT22;761;50.074;8.228;2022-07-29T04:28:52;16.40;1.00
1536;DHT22;761;50.074;8.228;2022-07-29T04:31:24;16.50;1.00
1536;DHT22;761;50.074;8.228;2022-07-29T04:33:52;16.50;1.00
1536;DHT22;761;50.074;8.228;2022-07-29T04:36:22;16.40;1.00
1536;DHT22;761;50.074;8.228;2022-07-29T04:38:55;16.30;1.00
1536;DHT22;761;50.074;8.228;2022-07-29T04:41:31;16.30;1.00
1536;DHT22;761;50.074;8.228;2022-07-29T04:44:00;16.40;1.00
1536;DHT22;761;50.074;8.228;2022-07-29T04:46:38;16.60;1.00
1536;DHT22;761;50.074;8.228;2022-07-29T04:49:12;16.80;1.00
1536;DHT22;761;50.074;8.228;2022-07-29T04:51:42;17.00;1.00
1536;DHT22;761;50.074;8.228;2022-07-29T04:54:10;17.40;1.00
1536;DHT22;761;50.074;8.228;2022-07-29T04:56:39;17.70;1.00
1536;DHT22;761;50.074;8.228;2022-07-29T04:59:08;17.70;1.00
1536;DHT22;761;50.074;8.228;2022-07-29T05:01:39;17.60;1.00
1536;DHT22;761;50.074;8.228;2022-07-29T05:04:08;17.40;1.00
1536;DHT22;761;50.074;8.228;2022-07-29T05:06:39;17.10;1.00
1536;DHT22;761;50.074;8.228;2022-07-29T05:09:09;17.00;1.00
1536;DHT22;761;50.074;8.228;2022-07-29T05:11:37;17.20;1.00
1536;DHT22;761;50.074;8.228;2022-07-29T05:14:06;17.40;1.00
1536;DHT22;761;50.074;8.228;2022-07-29T05:16:34;17.50;1.00
1536;DHT22;761;50.074;8.228;2022-07-29T05:19:02;17.80;1.00
1536;DHT22;761;50.074;8.228;2022-07-29T05:21:32;17.80;1.00
1536;DHT22;761;50.074;8.228;2022-07-29T05:24:00;18.00;1.00
1536;DHT22;761;50.074;8.228;2022-07-29T05:26:30;18.30;1.00
1536;DHT22;761;50.074;8.228;2022-07-29T05:28:58;18.50;1.00
1536;DHT22;761;50.074;8.228;2022-07-29T05:31:27;18.60;1.00
1536;DHT22;761;50.074;8.228;2022-07-29T05:33:55;18.60;1.00
1536;DHT22;761;50.074;8.228;2022-07-29T05:36:23;18.60;1.00
1536;DHT22;761;50.074;8.228;2022-07-29T05:38:54;18.80;1.00
1536;DHT22;761;50.074;8.228;2022-07-29T05:41:23;19.10;1.00
1536;DHT22;761;50.074;8.228;2022-07-29T05:43:53;19.20;1.00
1536;DHT22;761;50.074;8.228;2022-07-29T05:46:23;19.20;1.00
1536;DHT22;761;50.074;8.228;2022-07-29T05:48:51;19.30;1.00
1536;DHT22;761;50.074;8.228;2022-07-29T05:51:20;19.40;1.00
1536;DHT22;761;50.074;8.228;2022-07-29T05:53:48;19.40;1.00
1536;DHT22;761;50.074;8.228;2022-07-29T05:56:18;19.20;1.00
1536;DHT22;761;50.074;8.228;2022-07-29T06:01:18;19.20;1.00
1536;DHT22;761;50.074;8.228;2022-07-29T06:03:46;19.40;1.00
1536;DHT22;761;50.074;8.228;2022-07-29T06:06:17;19.50;1.00
1536;DHT22;761;50.074;8.228;2022-07-29T06:08:48;19.60;1.00
1536;DHT22;761;50.074;8.228;2022-07-29T06:11:18;19.90;1.00
1536;DHT22;761;50.074;8.228;2022-07-29T06:13:52;20.10;1.00
1536;DHT22;761;50.074;8.228;2022-07-29T06:16:22;20.20;1.00
1536;DHT22;761;50.074;8.228;2022-07-29T06:18:56;20.40;1.00
1536;DHT22;761;50.074;8.228;2022-07-29T06:21:24;20.50;1.00
1536;DHT22;761;50.074;8.228;2022-07-29T06:23:53;20.60;1.00
1536;DHT22;761;50.074;8.228;2022-07-29T06:26:21;20.60;1.00
1536;DHT22;761;50.074;8.228;2022-07-29T06:28:59;20.90;1.00
1536;DHT22;761;50.074;8.228;2022-07-29T06:31:29;20.90;1.00
1536;DHT22;761;50.074;8.228;2022-07-29T06:34:00;21.00;1.00
1536;DHT22;761;50.074;8.228;2022-07-29T06:38:57;21.00;1.00
1536;DHT22;761;50.074;8.228;2022-07-29T06:41:28;21.10;1.00
1536;DHT22;761;50.074;8.228;2022-07-29T06:43:58;21.10;1.00
1536;DHT22;761;50.074;8.228;2022-07-29T06:46:28;21.40;1.00
1536;DHT22;761;50.074;8.228;2022-07-29T06:48:56;21.90;1.00
1536;DHT22;761;50.074;8.228;2022-07-29T06:51:25;21.90;1.00
1536;DHT22;761;50.074;8.228;2022-07-29T06:53:54;21.90;1.00
1536;DHT22;761;50.074;8.228;2022-07-29T06:56:29;22.20;1.00
1536;DHT22;761;50.074;8.228;2022-07-29T06:59:06;22.70;1.00
1536;DHT22;761;50.074;8.228;2022-07-29T07:01:37;23.20;1.00
1536;DHT22;761;50.074;8.228;2022-07-29T07:04:06;23.70;1.00
1536;DHT22;761;50.074;8.228;2022-07-29T07:06:36;23.90;1.00
1536;DHT22;761;50.074;8.228;2022-07-29T07:09:04;23.80;1.00
1536;DHT22;761;50.074;8.228;2022-07-29T07:11:33;23.80;1.00
1536;DHT22;761;50.074;8.228;2022-07-29T07:14:01;23.50;1.00
1536;DHT22;761;50.074;8.228;2022-07-29T07:16:31;23.40;1.00
1536;DHT22;761;50.074;8.228;2022-07-29T07:19:01;23.30;1.00
1536;DHT22;761;50.074;8.228;2022-07-29T07:21:29;23.30;1.00
1536;DHT22;761;50.074;8.228;2022-07-29T07:24:00;23.30;1.00
1536;DHT22;761;50.074;8.228;2022-07-29T07:26:28;23.50;1.00
1536;DHT22;761;50.074;8.228;2022-07-29T07:28:59;23.60;1.00
1536;DHT22;761;50.074;8.228;2022-07-29T07:31:29;23.80;1.00
1536;DHT22;761;50.074;8.228;2022-07-29T07:33:57;23.90;1.00
1536;DHT22;761;50.074;8.228;2022-07-29T07:36:27;24.10;1.00
1536;DHT22;761;50.074;8.228;2022-07-29T07:38:55;24.50;1.00
1536;DHT22;761;50.074;8.228;2022-07-29T07:41:24;24.40;1.00
1536;DHT22;761;50.074;8.228;2022-07-29T07:44:01;24.50;1.00
1536;DHT22;761;50.074;8.228;2022-07-29T07:46:29;24.50;1.00
1536;DHT22;761;50.074;8.228;2022-07-29T07:48:57;24.60;1.00
1536;DHT22;761;50.074;8.228;2022-07-29T07:51:27;24.60;1.00
1536;DHT22;761;50.074;8.228;2022-07-29T07:53:55;24.40;1.00
1536;DHT22;761;50.074;8.228;2022-07-29T07:56:23;24.20;1.00
1536;DHT22;761;50.074;8.228;2022-07-29T07:58:51;24.30;1.00
1536;DHT22;761;50.074;8.228;2022-07-29T08:01:20;24.30;1.00
1536;DHT22;761;50.074;8.228;2022-07-29T08:03:50;24.30;1.00
1536;DHT22;761;50.074;8.228;2022-07-29T08:06:21;24.30;1.00
1536;DHT22;761;50.074;8.228;2022-07-29T08:08:55;24.30;1.00
1536;DHT22;761;50.074;8.228;2022-07-29T08:11:43;24.40;1.00
1536;DHT22;761;50.074;8.228;2022-07-29T08:14:18;24.30;1.00
1536;DHT22;761;50.074;8.228;2022-07-29T08:16:46;24.60;1.00
1536;DHT22;761;50.074;8.228;2022-07-29T08:19:18;24.80;1.00
1536;DHT22;761;50.074;8.228;2022-07-29T08:21:47;24.40;1.00
1536;DHT22;761;50.074;8.228;2022-07-29T08:24:16;24.60;1.00
1536;DHT22;761;50.074;8.228;2022-07-29T08:27:02;24.70;1.00
1536;DHT22;761;50.074;8.228;2022-07-29T08:29:50;24.80;1.00
1536;DHT22;761;50.074;8.228;2022-07-29T08:32:19;24.70;1.00
1536;DHT22;761;50.074;8.228;2022-07-29T08:35:07;24.70;1.00
1536;DHT22;761;50.074;8.228;2022-07-29T08:37:36;24.60;1.00
1536;DHT22;761;50.074;8.228;2022-07-29T08:40:06;24.50;1.00
1536;DHT22;761;50.074;8.228;2022-07-29T08:42:37;24.60;1.00
1536;DHT22;761;50.074;8.228;2022-07-29T08:45:07;24.70;1.00
1536;DHT22;761;50.074;8.228;2022-07-29T08:47:35;24.40;1.00
1536;DHT22;761;50.074;8.228;2022-07-29T08:50:07;24.40;1.00
1536;DHT22;761;50.074;8.228;2022-07-29T08:52:38;24.50;1.00
1536;DHT22;761;50.074;8.228;2022-07-29T08:55:09;24.60;1.00
1536;DHT22;761;50.074;8.228;2022-07-29T08:57:52;24.90;1.00
1536;DHT22;761;50.074;8.228;2022-07-29T09:00:25;25.00;1.00
1536;DHT22;761;50.074;8.228;2022-07-29T09:02:57;24.90;1.00
1536;DHT22;761;50.074;8.228;2022-07-29T09:05:29;24.80;1.00
1536;DHT22;761;50.074;8.228;2022-07-29T09:08:04;24.80;1.00
1536;DHT22;761;50.074;8.228;2022-07-29T09:10:36;25.10;1.00
1536;DHT22;761;50.074;8.228;2022-07-29T09:13:09;25.30;1.00
1536;DHT22;761;50.074;8.228;2022-07-29T09:15:37;25.40;1.00
1536;DHT22;761;50.074;8.228;2022-07-29T09:18:06;25.00;1.00
1536;DHT22;761;50.074;8.228;2022-07-29T09:20:51;24.50;1.00
1536;DHT22;761;50.074;8.228;2022-07-29T09:23:40;24.20;1.00
1536;DHT22;761;50.074;8.228;2022-07-29T09:26:11;24.20;1.00
1536;DHT22;761;50.074;8.228;2022-07-29T09:28:41;24.10;1.00
1536;DHT22;761;50.074;8.228;2022-07-29T09:31:09;24.40;1.00
1536;DHT22;761;50.074;8.228;2022-07-29T09:33:41;24.80;1.00
1536;DHT22;761;50.074;8.228;2022-07-29T09:36:11;25.00;1.00
1536;DHT22;761;50.074;8.228;2022-07-29T09:38:40;25.30;1.00
1536;DHT22;761;50.074;8.228;2022-07-29T09:41:08;25.40;1.00
1536;DHT22;761;50.074;8.228;2022-07-29T09:43:38;25.50;1.00
1536;DHT22;761;50.074;8.228;2022-07-29T09:46:11;25.70;1.00
1536;DHT22;761;50.074;8.228;2022-07-29T09:48:40;25.50;1.00
1536;DHT22;761;50.074;8.228;2022-07-29T09:51:17;25.90;1.00
1536;DHT22;761;50.074;8.228;2022-07-29T09:53:49;26.20;1.00
1536;DHT22;761;50.074;8.228;2022-07-29T09:56:19;25.80;1.00
1536;DHT22;761;50.074;8.228;2022-07-29T09:59:05;26.10;1.00
1536;DHT22;761;50.074;8.228;2022-07-29T10:01:33;25.80;1.00
1536;DHT22;761;50.074;8.228;2022-07-29T10:04:02;25.60;1.00
1536;DHT22;761;50.074;8.228;2022-07-29T10:06:31;25.50;1.00
1536;DHT22;761;50.074;8.228;2022-07-29T10:09:07;25.70;1.00
1536;DHT22;761;50.074;8.228;2022-07-29T10:11:36;26.00;1.00
1536;DHT22;761;50.074;8.228;2022-07-29T10:14:17;26.40;1.00
1536;DHT22;761;50.074;8.228;2022-07-29T10:16:45;26.30;1.00
1536;DHT22;761;50.074;8.228;2022-07-29T10:19:14;25.90;1.00
1536;DHT22;761;50.074;8.228;2022-07-29T10:21:42;25.90;1.00
1536;DHT22;761;50.074;8.228;2022-07-29T10:24:12;26.10;1.00
1536;DHT22;761;50.074;8.228;2022-07-29T10:26:41;26.70;1.00
1536;DHT22;761;50.074;8.228;2022-07-29T10:29:09;27.10;1.00
1536;DHT22;761;50.074;8.228;2022-07-29T10:31:47;26.70;1.00
1536;DHT22;761;50.074;8.228;2022-07-29T10:34:23;26.60;1.00
1536;DHT22;761;50.074;8.228;2022-07-29T10:37:03;26.80;1.00
1536;DHT22;761;50.074;8.228;2022-07-29T10:39:46;26.70;1.00
1536;DHT22;761;50.074;8.228;2022-07-29T10:42:18;26.60;1.00
1536;DHT22;761;50.074;8.228;2022-07-29T10:45:04;26.50;1.00
1536;DHT22;761;50.074;8.228;2022-07-29T10:47:36;26.60;1.00
1536;DHT22;761;50.074;8.228;2022-07-29T10:50:06;26.90;1.00
1536;DHT22;761;50.074;8.228;2022-07-29T10:52:54;27.10;1.00
1536;DHT22;761;50.074;8.228;2022-07-29T10:55:35;27.30;1.00
1536;DHT22;761;50.074;8.228;2022-07-29T10:58:16;26.90;1.00
1536;DHT22;761;50.074;8.228;2022-07-29T11:00:46;26.90;1.00
1536;DHT22;761;50.074;8.228;2022-07-29T11:03:45;27.20;1.00
1536;DHT22;761;50.074;8.228;2022-07-29T11:06:19;27.40;1.00
1536;DHT22;761;50.074;8.228;2022-07-29T11:09:16;27.70;1.00
1536;DHT22;761;50.074;8.228;2022-07-29T11:12:01;27.90;1.00
1536;DHT22;761;50.074;8.228;2022-07-29T11:14:57;26.90;1.00
1536;DHT22;761;50.074;8.228;2022-07-29T11:18:08;26.90;1.00
1536;DHT22;761;50.074;8.228;2022-07-29T11:20:46;26.90;1.00
1536;DHT22;761;50.074;8.228;2022-07-29T11:23:19;27.60;1.00
1536;DHT22;761;50.074;8.228;2022-07-29T11:26:17;27.60;1.00
1536;DHT22;761;50.074;8.228;2022-07-29T11:29:03;27.40;1.00
1536;DHT22;761;50.074;8.228;2022-07-29T11:31:39;27.40;1.00
1536;DHT22;761;50.074;8.228;2022-07-29T11:34:19;27.40;1.00
1536;DHT22;761;50.074;8.228;2022-07-29T11:37:18;28.00;1.00
1536;DHT22;761;50.074;8.228;2022-07-29T11:40:15;28.30;1.00
1536;DHT22;761;50.074;8.228;2022-07-29T11:42:48;28.10;1.00
1536;DHT22;761;50.074;8.228;2022-07-29T11:45:45;28.40;1.00
1536;DHT22;761;50.074;8.228;2022-07-29T11:48:17;28.50;1.00
1536;DHT22;761;50.074;8.228;2022-07-29T11:51:09;28.60;1.00
1536;DHT22;761;50.074;8.228;2022-07-29T11:53:51;28.40;1.00
1536;DHT22;761;50.074;8.228;2022-07-29T11:56:21;28.80;1.00
1536;DHT22;761;50.074;8.228;2022-07-29T11:59:02;28.90;1.00
1536;DHT22;761;50.074;8.228;2022-07-29T12:01:34;28.90;1.00
1536;DHT22;761;50.074;8.228;2022-07-29T12:04:03;28.90;1.00
1536;DHT22;761;50.074;8.228;2022-07-29T12:06:32;28.70;1.00
1536;DHT22;761;50.074;8.228;2022-07-29T12:09:08;28.40;1.00
1536;DHT22;761;50.074;8.228;2022-07-29T12:11:40;28.40;1.00
1536;DHT22;761;50.074;8.228;2022-07-29T12:14:28;28.40;1.00
1536;DHT22;761;50.074;8.228;2022-07-29T12:16:57;28.60;1.00
1536;DHT22;761;50.074;8.228;2022-07-29T12:19:26;28.60;1.00
1536;DHT22;761;50.074;8.228;2022-07-29T12:21:57;28.60;1.00
1536;DHT22;761;50.074;8.228;2022-07-29T12:24:42;29.00;1.00
1536;DHT22;761;50.074;8.228;2022-07-29T12:27:17;29.10;1.00
1536;DHT22;761;50.074;8.228;2022-07-29T12:29:57;29.10;1.00
1536;DHT22;761;50.074;8.228;2022-07-29T12:32:32;29.10;1.00
1536;DHT22;761;50.074;8.228;2022-07-29T12:35:03;29.00;1.00
1536;DHT22;761;50.074;8.228;2022-07-29T12:37:35;29.00;1.00
1536;DHT22;761;50.074;8.228;2022-07-29T12:40:10;29.30;1.00
1536;DHT22;761;50.074;8.228;2022-07-29T12:42:39;29.20;1.00
1536;DHT22;761;50.074;8.228;2022-07-29T12:45:08;28.90;1.00
1536;DHT22;761;50.074;8.228;2022-07-29T12:47:51;28.70;1.00
1536;DHT22;761;50.074;8.228;2022-07-29T12:50:20;28.40;1.00
1536;DHT22;761;50.074;8.228;2022-07-29T12:52:52;28.30;1.00
1536;DHT22;761;50.074;8.228;2022-07-29T12:55:41;28.20;1.00
1536;DHT22;761;50.074;8.228;2022-07-29T12:58:10;28.30;1.00
1536;DHT22;761;50.074;8.228;2022-07-29T13:00:38;28.10;1.00
1536;DHT22;761;50.074;8.228;2022-07-29T13:03:07;27.00;1.00
1536;DHT22;761;50.074;8.228;2022-07-29T13:05:41;25.50;1.00
1536;DHT22;761;50.074;8.228;2022-07-29T13:08:19;25.10;1.00
1536;DHT22;761;50.074;8.228;2022-07-29T13:10:52;25.10;1.00
1536;DHT22;761;50.074;8.228;2022-07-29T13:13:20;25.20;1.00
1536;DHT22;761;50.074;8.228;2022-07-29T13:16:06;25.30;1.00
1536;DHT22;761;50.074;8.228;2022-07-29T13:18:35;25.10;1.00
1536;DHT22;761;50.074;8.228;2022-07-29T13:21:11;23.90;1.00
1536;DHT22;761;50.074;8.228;2022-07-29T13:23:40;24.20;1.00
1536;DHT22;761;50.074;8.228;2022-07-29T13:26:10;24.70;1.00
1536;DHT22;761;50.074;8.228;2022-07-29T13:28:43;25.10;1.00
1536;DHT22;761;50.074;8.228;2022-07-29T13:31:11;25.00;1.00
1536;DHT22;761;50.074;8.228;2022-07-29T13:33:39;25.20;1.00
1536;DHT22;761;50.074;8.228;2022-07-29T13:36:08;25.30;1.00
1536;DHT22;761;50.074;8.228;2022-07-29T13:38:37;25.50;1.00
1536;DHT22;761;50.074;8.228;2022-07-29T13:41:05;25.40;1.00
1536;DHT22;761;50.074;8.228;2022-07-29T13:43:40;24.80;1.00
1536;DHT22;761;50.074;8.228;2022-07-29T13:46:08;25.10;1.00
1536;DHT22;761;50.074;8.228;2022-07-29T13:48:37;24.80;1.00
1536;DHT22;761;50.074;8.228;2022-07-29T13:51:08;25.10;1.00
1536;DHT22;761;50.074;8.228;2022-07-29T13:53:39;25.40;1.00
1536;DHT22;761;50.074;8.228;2022-07-29T13:56:07;25.50;1.00
1536;DHT22;761;50.074;8.228;2022-07-29T13:58:44;25.60;1.00
1536;DHT22;761;50.074;8.228;2022-07-29T14:01:13;25.80;1.00
1536;DHT22;761;50.074;8.228;2022-07-29T14:03:42;26.10;1.00
1536;DHT22;761;50.074;8.228;2022-07-29T14:06:11;25.60;1.00
1536;DHT22;761;50.074;8.228;2022-07-29T14:08:40;24.90;1.00
1536;DHT22;761;50.074;8.228;2022-07-29T14:13:37;25.40;1.00
1536;DHT22;761;50.074;8.228;2022-07-29T14:16:07;25.10;1.00
1536;DHT22;761;50.074;8.228;2022-07-29T14:18:35;25.30;1.00
1536;DHT22;761;50.074;8.228;2022-07-29T14:21:04;25.50;1.00
1536;DHT22;761;50.074;8.228;2022-07-29T14:23:32;25.50;1.00
1536;DHT22;761;50.074;8.228;2022-07-29T14:26:01;25.30;1.00
1536;DHT22;761;50.074;8.228;2022-07-29T14:28:34;25.10;1.00
1536;DHT22;761;50.074;8.228;2022-07-29T14:31:09;24.80;1.00
1536;DHT22;761;50.074;8.228;2022-07-29T14:33:37;24.80;1.00
1536;DHT22;761;50.074;8.228;2022-07-29T14:36:08;24.70;1.00
1536;DHT22;761;50.074;8.228;2022-07-29T14:38:37;24.70;1.00
1536;DHT22;761;50.074;8.228;2022-07-29T14:41:07;24.90;1.00
1536;DHT22;761;50.074;8.228;2022-07-29T14:43:36;24.50;1.00
1536;DHT22;761;50.074;8.228;2022-07-29T14:46:06;24.40;1.00
1536;DHT22;761;50.074;8.228;2022-07-29T14:48:36;24.30;1.00
1536;DHT22;761;50.074;8.228;2022-07-29T14:51:04;24.30;1.00
1536;DHT22;761;50.074;8.228;2022-07-29T14:53:33;24.30;1.00
1536;DHT22;761;50.074;8.228;2022-07-29T14:56:01;24.20;1.00
1536;DHT22;761;50.074;8.228;2022-07-29T14:58:50;24.10;1.00
1536;DHT22;761;50.074;8.228;2022-07-29T15:01:18;24.10;1.00
1536;DHT22;761;50.074;8.228;2022-07-29T15:03:50;23.70;1.00
1536;DHT22;761;50.074;8.228;2022-07-29T15:06:23;23.70;1.00
1536;DHT22;761;50.074;8.228;2022-07-29T15:08:52;23.50;1.00
1536;DHT22;761;50.074;8.228;2022-07-29T15:11:21;23.60;1.00
1536;DHT22;761;50.074;8.228;2022-07-29T15:13:52;23.40;1.00
1536;DHT22;761;50.074;8.228;2022-07-29T15:21:21;23.20;1.00
1536;DHT22;761;50.074;8.228;2022-07-29T15:23:52;23.10;1.00
1536;DHT22;761;50.074;8.228;2022-07-29T15:26:23;23.10;1.00
1536;DHT22;761;50.074;8.228;2022-07-29T15:28:51;23.10;1.00
1536;DHT22;761;50.074;8.228;2022-07-29T15:31:20;22.80;1.00
1536;DHT22;761;50.074;8.228;2022-07-29T15:33:48;22.30;1.00
1536;DHT22;761;50.074;8.228;2022-07-29T15:36:27;22.30;1.00
1536;DHT22;761;50.074;8.228;2022-07-29T15:39:21;22.60;1.00
1536;DHT22;761;50.074;8.228;2022-07-29T15:41:50;22.90;1.00
1536;DHT22;761;50.074;8.228;2022-07-29T15:44:19;23.10;1.00
1536;DHT22;761;50.074;8.228;2022-07-29T15:46:48;23.20;1.00
1536;DHT22;761;50.074;8.228;2022-07-29T15:49:34;23.50;1.00
1536;DHT22;761;50.074;8.228;2022-07-29T15:52:19;23.50;1.00
1536;DHT22;761;50.074;8.228;2022-07-29T15:54:52;23.80;1.00
1536;DHT22;761;50.074;8.228;2022-07-29T15:57:23;23.70;1.00
1536;DHT22;761;50.074;8.228;2022-07-29T15:59:52;23.60;1.00
1536;DHT22;761;50.074;8.228;2022-07-29T16:02:20;23.50;1.00
1536;DHT22;761;50.074;8.228;2022-07-29T16:04:49;23.40;1.00
1536;DHT22;761;50.074;8.228;2022-07-29T16:07:18;23.80;1.00
1536;DHT22;761;50.074;8.228;2022-07-29T16:09:47;24.20;1.00
1536;DHT22;761;50.074;8.228;2022-07-29T16:12:19;24.20;1.00
1536;DHT22;761;50.074;8.228;2022-07-29T16:14:53;24.20;1.00
1536;DHT22;761;50.074;8.228;2022-07-29T16:17:21;24.10;1.00
1536;DHT22;761;50.074;8.228;2022-07-29T16:19:49;24.20;1.00
1536;DHT22;761;50.074;8.228;2022-07-29T16:22:23;24.20;1.00
1536;DHT22;761;50.074;8.228;2022-07-29T16:24:58;24.00;1.00
1536;DHT22;761;50.074;8.228;2022-07-29T16:27:26;23.90;1.00
1536;DHT22;761;50.074;8.228;2022-07-29T16:30:04;24.00;1.00
1536;DHT22;761;50.074;8.228;2022-07-29T16:32:33;24.10;1.00
1536;DHT22;761;50.074;8.228;2022-07-29T16:35:01;24.20;1.00
1536;DHT22;761;50.074;8.228;2022-07-29T16:37:34;24.20;1.00
1536;DHT22;761;50.074;8.228;2022-07-29T16:40:04;24.20;1.00
1536;DHT22;761;50.074;8.228;2022-07-29T16:42:38;24.20;1.00
1536;DHT22;761;50.074;8.228;2022-07-29T16:45:14;24.00;1.00
1536;DHT22;761;50.074;8.228;2022-07-29T16:47:47;23.90;1.00
1536;DHT22;761;50.074;8.228;2022-07-29T16:50:15;23.70;1.00
1536;DHT22;761;50.074;8.228;2022-07-29T16:52:47;23.50;1.00
1536;DHT22;761;50.074;8.228;2022-07-29T16:55:16;23.40;1.00
1536;DHT22;761;50.074;8.228;2022-07-29T16:57:47;23.20;1.00
1536;DHT22;761;50.074;8.228;2022-07-29T17:00:17;22.90;1.00
1536;DHT22;761;50.074;8.228;2022-07-29T17:02:45;22.80;1.00
1536;DHT22;761;50.074;8.228;2022-07-29T17:05:14;22.70;1.00
1536;DHT22;761;50.074;8.228;2022-07-29T17:07:45;23.00;1.00
1536;DHT22;761;50.074;8.228;2022-07-29T17:10:15;23.30;1.00
1536;DHT22;761;50.074;8.228;2022-07-29T17:15:15;23.40;1.00
1536;DHT22;761;50.074;8.228;2022-07-29T17:17:44;23.60;1.00
1536;DHT22;761;50.074;8.228;2022-07-29T17:20:21;23.80;1.00
1536;DHT22;761;50.074;8.228;2022-07-29T17:22:49;23.60;1.00
1536;DHT22;761;50.074;8.228;2022-07-29T17:25:20;22.90;1.00
1536;DHT22;761;50.074;8.228;2022-07-29T17:27:48;22.60;1.00
1536;DHT22;761;50.074;8.228;2022-07-29T17:30:17;22.20;1.00